sensor_id;sensor_type;location;lat;lon;timestamp;pressure;altitude;pressure_sealevel;temperature;humidity
1371;BME280;14306;49.942;11.570;2023-05-08T00:01:24;97941.78;;;12.70;66.52
1371;BME280;14306;49.942;11.570;2023-05-08T00:03:52;97959.38;;;12.73;66.73
1371;BME280;14306;49.942;11.570;2023-05-08T00:06:21;97964.41;;;12.66;67.21
1371;BME280;14306;49.942;11.570;2023-05-08T00:08:50;97923.47;;;12.49;67.21
1371;BME280;14306;49.942;11.570;2023-05-08T00:11:20;97956.38;;;12.61;67.18
1371;BME280;14306;49.942;11.570;2023-05-08T00:13:49;97943.78;;;12.51;67.33
1371;BME280;14306;49.942;11.570;2023-05-08T00:16:18;97978.94;;;12.48;67.91
1371;BME280;14306;49.942;11.570;2023-05-08T00:18:47;97989.88;;;12.56;67.80
1371;BME280;14306;49.942;11.570;2023-05-08T00:21:16;97954.78;;;12.33;67.89
1371;BME280;14306;49.942;11.570;2023-05-08T00:23:45;97958.56;;;12.18;68.43
1371;BME280;14306;49.942;11.570;2023-05-08T00:26:13;97957.97;;;12.48;67.55
1371;BME280;14306;49.942;11.570;2023-05-08T00:28:43;97968.34;;;12.60;67.10
1371;BME280;14306;49.942;11.570;2023-05-08T00:31:12;97974.56;;;12.60;66.97
1371;BME280;14306;49.942;11.570;2023-05-08T00:33:41;97980.97;;;12.10;67.84
1371;BME280;14306;49.942;11.570;2023-05-08T00:36:09;97937.38;;;12.34;67.26
1371;BME280;14306;49.942;11.570;2023-05-08T00:38:38;97983.22;;;12.22;67.85
1371;BME280;14306;49.942;11.570;2023-05-08T00:41:07;97959.81;;;12.39;67.19
1371;BME280;14306;49.942;11.570;2023-05-08T00:43:35;97985.56;;;12.42;67.80
1371;BME280;14306;49.942;11.570;2023-05-08T00:46:07;97983.13;;;12.27;68.32
1371;BME280;14306;49.942;11.570;2023-05-08T00:48:38;97953.53;;;11.98;68.29
1371;BME280;14306;49.942;11.570;2023-05-08T00:51:07;97966.94;;;12.22;67.54
1371;BME280;14306;49.942;11.570;2023-05-08T00:53:41;97966.63;;;12.10;68.31
1371;BME280;14306;49.942;11.570;2023-05-08T00:56:13;97956.47;;;12.02;68.51
1371;BME280;14306;49.942;11.570;2023-05-08T00:58:42;97993.50;;;12.38;67.72
1371;BME280;14306;49.942;11.570;2023-05-08T01:01:13;97963.97;;;11.91;68.15
1371;BME280;14306;49.942;11.570;2023-05-08T01:03:42;97945.06;;;11.86;68.31
1371;BME280;14306;49.942;11.570;2023-05-08T01:06:12;97981.81;;;12.11;68.72
1371;BME280;14306;49.942;11.570;2023-05-08T01:08:42;97982.44;;;11.75;69.02
1371;BME280;14306;49.942;11.570;2023-05-08T01:11:16;97954.97;;;11.63;69.05
1371;BME280;14306;49.942;11.570;2023-05-08T01:13:53;98000.94;;;11.87;69.11
1371;BME280;14306;49.942;11.570;2023-05-08T01:16:34;97990.50;;;11.94;68.46
1371;BME280;14306;49.942;11.570;2023-05-08T01:19:26;97988.47;;;11.86;68.85
1371;BME280;14306;49.942;11.570;2023-05-08T01:22:09;97988.72;;;11.71;68.56
1371;BME280;14306;49.942;11.570;2023-05-08T01:24:58;98019.22;;;11.81;69.26
1371;BME280;14306;49.942;11.570;2023-05-08T01:28:03;98001.97;;;11.91;69.15
1371;BME280;14306;49.942;11.570;2023-05-08T01:33:32;97996.81;;;11.89;68.66
1371;BME280;14306;49.942;11.570;2023-05-08T01:36:13;97964.53;;;11.56;68.59
1371;BME280;14306;49.942;11.570;2023-05-08T01:38:52;98013.66;;;12.05;67.77
1371;BME280;14306;49.942;11.570;2023-05-08T01:41:25;98013.19;;;11.84;68.30
1371;BME280;14306;49.942;11.570;2023-05-08T01:44:05;97973.31;;;11.85;67.85
1371;BME280;14306;49.942;11.570;2023-05-08T01:46:37;97980.53;;;11.57;68.66
1371;BME280;14306;49.942;11.570;2023-05-08T01:49:11;98002.31;;;11.52;69.18
1371;BME280;14306;49.942;11.570;2023-05-08T01:51:52;98015.00;;;11.75;68.82
1371;BME280;14306;49.942;11.570;2023-05-08T01:54:27;98022.59;;;11.92;68.27
1371;BME280;14306;49.942;11.570;2023-05-08T01:56:58;98005.97;;;11.61;68.11
1371;BME280;14306;49.942;11.570;2023-05-08T01:59:30;98041.16;;;11.85;68.25
1371;BME280;14306;49.942;11.570;2023-05-08T02:02:01;97992.94;;;11.63;67.95
1371;BME280;14306;49.942;11.570;2023-05-08T02:04:34;98019.53;;;11.43;68.69
1371;BME280;14306;49.942;11.570;2023-05-08T02:07:04;98020.47;;;11.70;68.39
1371;BME280;14306;49.942;11.570;2023-05-08T02:09:34;97989.72;;;11.43;68.69
1371;BME280;14306;49.942;11.570;2023-05-08T02:12:03;98035.06;;;11.74;68.43
1371;BME280;14306;49.942;11.570;2023-05-08T02:14:35;98012.34;;;11.70;67.85
1371;BME280;14306;49.942;11.570;2023-05-08T02:17:05;98010.94;;;11.54;68.06
1371;BME280;14306;49.942;11.570;2023-05-08T02:19:39;98014.13;;;11.61;67.64
1371;BME280;14306;49.942;11.570;2023-05-08T02:22:09;97988.22;;;11.50;68.61
1371;BME280;14306;49.942;11.570;2023-05-08T02:24:39;98030.16;;;11.58;69.04
1371;BME280;14306;49.942;11.570;2023-05-08T02:27:12;98023.13;;;11.38;69.47
1371;BME280;14306;49.942;11.570;2023-05-08T02:29:42;98004.88;;;11.07;70.04
1371;BME280;14306;49.942;11.570;2023-05-08T02:32:12;98024.00;;;11.34;69.89
1371;BME280;14306;49.942;11.570;2023-05-08T02:34:44;98035.50;;;11.26;70.48
1371;BME280;14306;49.942;11.570;2023-05-08T02:37:28;98053.09;;;11.28;70.31
1371;BME280;14306;49.942;11.570;2023-05-08T02:39:57;98004.94;;;11.02;70.48
1371;BME280;14306;49.942;11.570;2023-05-08T02:42:26;98005.47;;;11.04;69.98
1371;BME280;14306;49.942;11.570;2023-05-08T02:44:55;98028.19;;;11.08;70.50
1371;BME280;14306;49.942;11.570;2023-05-08T02:47:26;98035.41;;;11.12;70.62
1371;BME280;14306;49.942;11.570;2023-05-08T02:50:04;98034.38;;;11.08;70.59
1371;BME280;14306;49.942;11.570;2023-05-08T02:52:41;98022.44;;;11.09;70.45
1371;BME280;14306;49.942;11.570;2023-05-08T02:55:18;98034.19;;;11.23;70.54
1371;BME280;14306;49.942;11.570;2023-05-08T02:58:02;98031.94;;;11.12;70.57
1371;BME280;14306;49.942;11.570;2023-05-08T03:00:39;98040.06;;;11.12;70.37
1371;BME280;14306;49.942;11.570;2023-05-08T03:03:14;98036.16;;;11.18;69.87
1371;BME280;14306;49.942;11.570;2023-05-08T03:05:50;98048.94;;;11.36;69.99
1371;BME280;14306;49.942;11.570;2023-05-08T03:08:23;98035.63;;;10.97;70.46
1371;BME280;14306;49.942;11.570;2023-05-08T03:10:56;98056.91;;;11.09;70.56
1371;BME280;14306;49.942;11.570;2023-05-08T03:13:28;98036.44;;;10.98;70.43
1371;BME280;14306;49.942;11.570;2023-05-08T03:16:01;98015.47;;;10.85;70.68
1371;BME280;14306;49.942;11.570;2023-05-08T03:18:33;98031.19;;;11.06;70.54
1371;BME280;14306;49.942;11.570;2023-05-08T03:21:06;98016.94;;;10.96;70.34
1371;BME280;14306;49.942;11.570;2023-05-08T03:23:37;98026.91;;;11.00;70.24
1371;BME280;14306;49.942;11.570;2023-05-08T03:26:09;98011.47;;;11.01;70.11
1371;BME280;14306;49.942;11.570;2023-05-08T03:28:39;98041.00;;;10.79;70.83
1371;BME280;14306;49.942;11.570;2023-05-08T03:31:09;98040.28;;;10.92;70.95
1371;BME280;14306;49.942;11.570;2023-05-08T03:33:41;98040.25;;;10.97;71.04
1371;BME280;14306;49.942;11.570;2023-05-08T03:36:12;98041.13;;;10.92;70.93
1371;BME280;14306;49.942;11.570;2023-05-08T03:38:42;98075.06;;;11.08;70.57
1371;BME280;14306;49.942;11.570;2023-05-08T03:41:11;98047.19;;;10.84;71.19
1371;BME280;14306;49.942;11.570;2023-05-08T03:43:40;98009.66;;;10.73;70.83
1371;BME280;14306;49.942;11.570;2023-05-08T03:46:09;98027.56;;;10.92;70.53
1371;BME280;14306;49.942;11.570;2023-05-08T03:48:39;98039.44;;;10.73;71.14
1371;BME280;14306;49.942;11.570;2023-05-08T03:51:08;98023.25;;;10.68;71.38
1371;BME280;14306;49.942;11.570;2023-05-08T03:53:39;98025.50;;;10.61;71.64
1371;BME280;14306;49.942;11.570;2023-05-08T03:56:09;98048.75;;;10.90;71.39
1371;BME280;14306;49.942;11.570;2023-05-08T03:58:42;98075.53;;;10.92;70.63
1371;BME280;14306;49.942;11.570;2023-05-08T04:01:19;98046.34;;;10.84;71.44
1371;BME280;14306;49.942;11.570;2023-05-08T04:03:57;98067.38;;;11.34;69.62
1371;BME280;14306;49.942;11.570;2023-05-08T04:06:33;98065.81;;;11.09;70.13
1371;BME280;14306;49.942;11.570;2023-05-08T04:09:22;98075.94;;;11.04;70.44
1371;BME280;14306;49.942;11.570;2023-05-08T04:11:59;98024.97;;;10.82;70.65
1371;BME280;14306;49.942;11.570;2023-05-08T04:14:35;98068.66;;;11.41;69.22
1371;BME280;14306;49.942;11.570;2023-05-08T04:17:10;98067.50;;;11.66;68.16
1371;BME280;14306;49.942;11.570;2023-05-08T04:19:45;98043.59;;;11.31;68.73
1371;BME280;14306;49.942;11.570;2023-05-08T04:22:19;98064.66;;;11.15;69.42
1371;BME280;14306;49.942;11.570;2023-05-08T04:24:53;98048.03;;;11.22;69.44
1371;BME280;14306;49.942;11.570;2023-05-08T04:27:27;98066.84;;;11.55;68.13
1371;BME280;14306;49.942;11.570;2023-05-08T04:29:57;98058.09;;;11.21;69.11
1371;BME280;14306;49.942;11.570;2023-05-08T04:32:26;98090.44;;;11.36;69.11
1371;BME280;14306;49.942;11.570;2023-05-08T04:34:56;98116.78;;;11.92;68.12
1371;BME280;14306;49.942;11.570;2023-05-08T04:37:27;98080.56;;;11.64;67.39
1371;BME280;14306;49.942;11.570;2023-05-08T04:39:59;98076.75;;;12.16;66.13
1371;BME280;14306;49.942;11.570;2023-05-08T04:42:28;98121.00;;;12.16;66.68
1371;BME280;14306;49.942;11.570;2023-05-08T04:44:57;98075.84;;;11.88;66.93
1371;BME280;14306;49.942;11.570;2023-05-08T04:47:26;98074.38;;;11.96;67.09
1371;BME280;14306;49.942;11.570;2023-05-08T04:49:55;98086.25;;;12.45;65.12
1371;BME280;14306;49.942;11.570;2023-05-08T04:52:27;98109.50;;;12.38;66.17
1371;BME280;14306;49.942;11.570;2023-05-08T04:54:56;98067.91;;;12.24;65.29
1371;BME280;14306;49.942;11.570;2023-05-08T04:57:27;98119.53;;;12.69;65.48
1371;BME280;14306;49.942;11.570;2023-05-08T04:59:57;98090.22;;;12.53;64.41
1371;BME280;14306;49.942;11.570;2023-05-08T05:02:38;98125.72;;;12.43;65.85
1371;BME280;14306;49.942;11.570;2023-05-08T05:05:11;98088.81;;;12.69;64.80
1371;BME280;14306;49.942;11.570;2023-05-08T05:07:40;98123.63;;;13.26;63.38
1371;BME280;14306;49.942;11.570;2023-05-08T05:10:16;98139.06;;;13.30;62.48
1371;BME280;14306;49.942;11.570;2023-05-08T05:12:51;98082.44;;;12.33;64.97
1371;BME280;14306;49.942;11.570;2023-05-08T05:15:22;98102.28;;;12.60;63.95
1371;BME280;14306;49.942;11.570;2023-05-08T05:17:57;98085.81;;;12.11;65.87
1371;BME280;14306;49.942;11.570;2023-05-08T05:20:30;98105.91;;;13.01;63.65
1371;BME280;14306;49.942;11.570;2023-05-08T05:23:09;98119.16;;;13.57;62.41
1371;BME280;14306;49.942;11.570;2023-05-08T05:25:45;98128.41;;;13.69;61.43
1371;BME280;14306;49.942;11.570;2023-05-08T05:28:19;98088.69;;;12.47;64.60
1371;BME280;14306;49.942;11.570;2023-05-08T05:30:57;98111.06;;;12.25;66.05
1371;BME280;14306;49.942;11.570;2023-05-08T05:33:32;98147.59;;;13.10;64.56
1371;BME280;14306;49.942;11.570;2023-05-08T05:36:05;98097.09;;;12.64;64.30
1371;BME280;14306;49.942;11.570;2023-05-08T05:38:36;98131.50;;;13.14;64.29
1371;BME280;14306;49.942;11.570;2023-05-08T05:41:17;98150.31;;;13.64;62.78
1371;BME280;14306;49.942;11.570;2023-05-08T05:43:49;98139.72;;;14.20;60.83
1371;BME280;14306;49.942;11.570;2023-05-08T05:46:19;98132.00;;;13.78;61.28
1371;BME280;14306;49.942;11.570;2023-05-08T05:49:11;98134.31;;;13.22;62.98
1371;BME280;14306;49.942;11.570;2023-05-08T05:51:45;98109.13;;;13.17;62.96
1371;BME280;14306;49.942;11.570;2023-05-08T05:54:20;98151.56;;;14.29;60.44
1371;BME280;14306;49.942;11.570;2023-05-08T05:56:51;98142.91;;;13.65;61.26
1371;BME280;14306;49.942;11.570;2023-05-08T05:59:27;98148.78;;;14.07;60.76
1371;BME280;14306;49.942;11.570;2023-05-08T06:01:57;98156.06;;;14.56;59.31
1371;BME280;14306;49.942;11.570;2023-05-08T06:04:26;98138.84;;;14.25;58.98
1371;BME280;14306;49.942;11.570;2023-05-08T06:06:55;98147.63;;;14.22;59.89
1371;BME280;14306;49.942;11.570;2023-05-08T06:09:27;98173.84;;;15.36;56.12
1371;BME280;14306;49.942;11.570;2023-05-08T06:12:03;98179.06;;;14.94;56.75
1371;BME280;14306;49.942;11.570;2023-05-08T06:14:34;98156.94;;;14.07;59.47
1371;BME280;14306;49.942;11.570;2023-05-08T06:17:03;98158.84;;;14.42;59.25
1371;BME280;14306;49.942;11.570;2023-05-08T06:19:31;98180.56;;;15.00;57.17
1371;BME280;14306;49.942;11.570;2023-05-08T06:22:01;98192.09;;;15.75;55.46
1371;BME280;14306;49.942;11.570;2023-05-08T06:24:38;98172.38;;;15.00;57.35
1371;BME280;14306;49.942;11.570;2023-05-08T06:27:10;98161.94;;;15.02;56.93
1371;BME280;14306;49.942;11.570;2023-05-08T06:29:47;98150.66;;;15.73;55.25
1371;BME280;14306;49.942;11.570;2023-05-08T06:32:21;98200.34;;;15.84;54.46
1371;BME280;14306;49.942;11.570;2023-05-08T06:35:07;98180.81;;;15.51;55.64
1371;BME280;14306;49.942;11.570;2023-05-08T06:37:43;98205.53;;;16.28;52.99
1371;BME280;14306;49.942;11.570;2023-05-08T06:40:32;98209.13;;;17.42;50.39
1371;BME280;14306;49.942;11.570;2023-05-08T06:43:09;98178.56;;;16.43;52.18
1371;BME280;14306;49.942;11.570;2023-05-08T06:45:47;98235.50;;;18.13;48.86
1371;BME280;14306;49.942;11.570;2023-05-08T06:48:20;98209.88;;;17.89;48.68
1371;BME280;14306;49.942;11.570;2023-05-08T06:50:57;98211.13;;;17.08;50.43
1371;BME280;14306;49.942;11.570;2023-05-08T06:53:29;98210.84;;;16.92;51.64
1371;BME280;14306;49.942;11.570;2023-05-08T06:56:00;98210.06;;;16.75;51.85
1371;BME280;14306;49.942;11.570;2023-05-08T06:59:23;98201.38;;;17.44;48.99
1371;BME280;14306;49.942;11.570;2023-05-08T07:01:57;98217.00;;;17.44;49.78
1371;BME280;14306;49.942;11.570;2023-05-08T07:04:52;98231.16;;;18.12;48.48
1371;BME280;14306;49.942;11.570;2023-05-08T07:07:25;98236.38;;;19.29;44.64
1371;BME280;14306;49.942;11.570;2023-05-08T07:09:58;98192.06;;;17.28;50.01
1371;BME280;14306;49.942;11.570;2023-05-08T07:12:34;98199.31;;;17.24;49.75
1371;BME280;14306;49.942;11.570;2023-05-08T07:15:46;98240.06;;;18.79;46.96
1371;BME280;14306;49.942;11.570;2023-05-08T07:18:44;98220.38;;;17.49;49.52
1371;BME280;14306;49.942;11.570;2023-05-08T07:21:55;98214.41;;;17.39;50.27
1371;BME280;14306;49.942;11.570;2023-05-08T07:24:29;98192.38;;;17.73;48.73
1371;BME280;14306;49.942;11.570;2023-05-08T07:31:34;98274.34;;;19.95;43.17
1371;BME280;14306;49.942;11.570;2023-05-08T07:34:12;98238.78;;;18.56;47.00
1371;BME280;14306;49.942;11.570;2023-05-08T07:36:42;98270.09;;;19.86;44.12
1371;BME280;14306;49.942;11.570;2023-05-08T07:39:19;98221.44;;;17.65;48.83
1371;BME280;14306;49.942;11.570;2023-05-08T07:42:05;98198.66;;;17.73;48.75
1371;BME280;14306;49.942;11.570;2023-05-08T07:44:59;98218.06;;;19.00;45.37
1371;BME280;14306;49.942;11.570;2023-05-08T07:47:55;98198.03;;;17.22;49.35
1371;BME280;14306;49.942;11.570;2023-05-08T07:50:40;98194.22;;;17.89;48.87
1371;BME280;14306;49.942;11.570;2023-05-08T07:53:31;98244.34;;;20.02;43.98
1371;BME280;14306;49.942;11.570;2023-05-08T07:56:14;98232.56;;;18.47;47.79
1371;BME280;14306;49.942;11.570;2023-05-08T07:58:46;98232.41;;;19.17;46.28
1371;BME280;14306;49.942;11.570;2023-05-08T08:01:16;98255.75;;;19.56;44.49
1371;BME280;14306;49.942;11.570;2023-05-08T08:03:45;98258.16;;;20.54;42.95
1371;BME280;14306;49.942;11.570;2023-05-08T08:06:18;98268.97;;;20.86;41.48
1371;BME280;14306;49.942;11.570;2023-05-08T08:08:51;98309.75;;;22.22;39.99
1371;BME280;14306;49.942;11.570;2023-05-08T08:11:38;98316.66;;;22.63;38.81
1371;BME280;14306;49.942;11.570;2023-05-08T08:14:08;98333.84;;;23.63;37.38
1371;BME280;14306;49.942;11.570;2023-05-08T08:16:51;98285.28;;;22.71;37.27
1371;BME280;14306;49.942;11.570;2023-05-08T08:19:24;98305.09;;;23.11;37.70
1371;BME280;14306;49.942;11.570;2023-05-08T08:21:59;98331.03;;;24.46;35.47
1371;BME280;14306;49.942;11.570;2023-05-08T08:39:51;98389.09;;;26.06;32.79
1371;BME280;14306;49.942;11.570;2023-05-08T08:42:29;98404.13;;;27.39;30.76
1371;BME280;14306;49.942;11.570;2023-05-08T08:45:41;98372.06;;;25.74;33.26
1371;BME280;14306;49.942;11.570;2023-05-08T08:48:31;98402.69;;;27.05;31.83
1371;BME280;14306;49.942;11.570;2023-05-08T08:51:42;98390.44;;;26.63;31.49
1371;BME280;14306;49.942;11.570;2023-05-08T08:54:23;98456.31;;;29.65;27.87
1371;BME280;14306;49.942;11.570;2023-05-08T08:57:04;98454.34;;;29.37;27.69
1371;BME280;14306;49.942;11.570;2023-05-08T08:59:42;98316.88;;;25.07;33.76
1371;BME280;14306;49.942;11.570;2023-05-08T09:02:13;98333.13;;;25.34;33.33
1371;BME280;14306;49.942;11.570;2023-05-08T09:04:48;98424.00;;;28.23;29.85
1371;BME280;14306;49.942;11.570;2023-05-08T09:07:22;98380.09;;;27.14;30.94
1371;BME280;14306;49.942;11.570;2023-05-08T09:10:16;98372.38;;;26.86;31.43
1371;BME280;14306;49.942;11.570;2023-05-08T09:12:51;98337.41;;;25.28;33.32
1371;BME280;14306;49.942;11.570;2023-05-08T09:15:30;98345.91;;;25.13;33.78
1371;BME280;14306;49.942;11.570;2023-05-08T09:18:01;98243.63;;;21.79;39.50
1371;BME280;14306;49.942;11.570;2023-05-08T09:20:34;98271.41;;;22.67;38.77
1371;BME280;14306;49.942;11.570;2023-05-08T09:23:04;98270.84;;;22.96;37.60
1371;BME280;14306;49.942;11.570;2023-05-08T09:25:41;98332.28;;;25.30;34.35
1371;BME280;14306;49.942;11.570;2023-05-08T09:28:22;98316.94;;;24.32;35.43
1371;BME280;14306;49.942;11.570;2023-05-08T09:30:55;98273.19;;;23.32;37.20
1371;BME280;14306;49.942;11.570;2023-05-08T09:33:29;98297.88;;;23.63;37.18
1371;BME280;14306;49.942;11.570;2023-05-08T09:36:01;98261.03;;;23.18;37.59
1371;BME280;14306;49.942;11.570;2023-05-08T09:38:38;98318.63;;;25.18;34.87
1371;BME280;14306;49.942;11.570;2023-05-08T09:41:14;98327.28;;;25.43;34.13
1371;BME280;14306;49.942;11.570;2023-05-08T09:44:00;98344.06;;;25.90;33.13
1371;BME280;14306;49.942;11.570;2023-05-08T09:46:31;98297.97;;;23.89;36.21
1371;BME280;14306;49.942;11.570;2023-05-08T09:49:16;98303.72;;;24.00;36.45
1371;BME280;14306;49.942;11.570;2023-05-08T09:52:17;98332.03;;;26.12;33.25
1371;BME280;14306;49.942;11.570;2023-05-08T09:55:09;98354.78;;;26.28;32.06
1371;BME280;14306;49.942;11.570;2023-05-08T09:57:51;98336.22;;;25.62;33.41
1371;BME280;14306;49.942;11.570;2023-05-08T10:00:33;98310.41;;;24.44;35.64
1371;BME280;14306;49.942;11.570;2023-05-08T10:03:24;98349.41;;;25.10;34.47
1371;BME280;14306;49.942;11.570;2023-05-08T10:06:25;98294.59;;;24.70;35.13
1371;BME280;14306;49.942;11.570;2023-05-08T10:09:10;98311.41;;;25.10;34.41
1371;BME280;14306;49.942;11.570;2023-05-08T10:12:19;98312.81;;;25.60;33.34
1371;BME280;14306;49.942;11.570;2023-05-08T10:14:39;98298.00;;;24.60;35.12
1371;BME280;14306;49.942;11.570;2023-05-08T10:17:26;98284.81;;;24.80;34.93
1371;BME280;14306;49.942;11.570;2023-05-08T10:20:06;98340.66;;;26.00;33.18
1371;BME280;14306;49.942;11.570;2023-05-08T10:22:52;98336.25;;;25.99;33.05
1371;BME280;14306;49.942;11.570;2023-05-08T10:25:32;98314.47;;;25.68;33.67
1371;BME280;14306;49.942;11.570;2023-05-08T10:28:23;98307.38;;;24.78;34.78
1371;BME280;14306;49.942;11.570;2023-05-08T10:34:00;98370.38;;;27.48;30.85
1371;BME280;14306;49.942;11.570;2023-05-08T10:36:30;98330.00;;;26.09;32.65
1371;BME280;14306;49.942;11.570;2023-05-08T10:39:04;98312.25;;;25.14;34.24
1371;BME280;14306;49.942;11.570;2023-05-08T10:41:35;98365.53;;;27.34;31.06
1371;BME280;14306;49.942;11.570;2023-05-08T10:44:04;98334.19;;;25.92;32.58
1371;BME280;14306;49.942;11.570;2023-05-08T10:46:39;98354.84;;;27.40;30.80
1371;BME280;14306;49.942;11.570;2023-05-08T10:49:19;98297.88;;;25.71;32.76
1371;BME280;14306;49.942;11.570;2023-05-08T10:52:00;98329.72;;;27.29;31.19
1371;BME280;14306;49.942;11.570;2023-05-08T10:54:44;98335.56;;;26.53;32.35
1371;BME280;14306;49.942;11.570;2023-05-08T10:57:16;98303.22;;;25.24;34.11
1371;BME280;14306;49.942;11.570;2023-05-08T10:59:46;98276.13;;;24.55;35.04
1371;BME280;14306;49.942;11.570;2023-05-08T11:02:14;98292.91;;;25.54;33.13
1371;BME280;14306;49.942;11.570;2023-05-08T11:04:47;98304.03;;;25.54;33.81
1371;BME280;14306;49.942;11.570;2023-05-08T11:07:16;98322.25;;;26.29;33.06
1371;BME280;14306;49.942;11.570;2023-05-08T11:09:45;98298.94;;;25.60;33.80
1371;BME280;14306;49.942;11.570;2023-05-08T11:12:20;98257.84;;;24.77;34.83
1371;BME280;14306;49.942;11.570;2023-05-08T11:14:59;98253.59;;;24.31;35.56
1371;BME280;14306;49.942;11.570;2023-05-08T11:17:29;98270.56;;;24.78;35.12
1371;BME280;14306;49.942;11.570;2023-05-08T11:20:01;98274.88;;;24.49;35.17
1371;BME280;14306;49.942;11.570;2023-05-08T11:22:31;98297.44;;;25.69;33.56
1371;BME280;14306;49.942;11.570;2023-05-08T11:25:03;98275.50;;;25.57;33.38
1371;BME280;14306;49.942;11.570;2023-05-08T11:27:36;98300.22;;;25.03;34.76
1371;BME280;14306;49.942;11.570;2023-05-08T11:30:19;98313.44;;;26.20;32.97
1371;BME280;14306;49.942;11.570;2023-05-08T11:32:58;98308.47;;;25.96;33.69
1371;BME280;14306;49.942;11.570;2023-05-08T11:35:47;98269.69;;;24.48;35.04
1371;BME280;14306;49.942;11.570;2023-05-08T11:38:19;98258.22;;;24.23;35.23
1371;BME280;14306;49.942;11.570;2023-05-08T11:40:53;98261.47;;;24.29;36.01
1371;BME280;14306;49.942;11.570;2023-05-08T11:43:34;98253.06;;;24.22;35.51
1371;BME280;14306;49.942;11.570;2023-05-08T11:46:13;98263.34;;;24.47;35.48
1371;BME280;14306;49.942;11.570;2023-05-08T11:48:43;98235.13;;;23.90;36.20
1371;BME280;14306;49.942;11.570;2023-05-08T11:51:16;98228.38;;;22.85;38.29
1371;BME280;14306;49.942;11.570;2023-05-08T11:53:46;98233.38;;;23.59;36.98
1371;BME280;14306;49.942;11.570;2023-05-08T11:56:15;98262.84;;;24.64;35.08
1371;BME280;14306;49.942;11.570;2023-05-08T11:58:44;98254.72;;;23.81;36.22
1371;BME280;14306;49.942;11.570;2023-05-08T12:01:18;98237.38;;;23.39;36.75
1371;BME280;14306;49.942;11.570;2023-05-08T12:03:48;98232.97;;;23.80;36.16
1371;BME280;14306;49.942;11.570;2023-05-08T12:06:29;98248.03;;;24.57;34.96
1371;BME280;14306;49.942;11.570;2023-05-08T12:09:00;98282.53;;;25.44;33.40
1371;BME280;14306;49.942;11.570;2023-05-08T12:11:30;98258.91;;;24.98;33.80
1371;BME280;14306;49.942;11.570;2023-05-08T12:14:00;98291.25;;;25.17;33.71
1371;BME280;14306;49.942;11.570;2023-05-08T12:16:33;98257.91;;;24.54;33.97
1371;BME280;14306;49.942;11.570;2023-05-08T12:19:03;98249.50;;;23.76;36.07
1371;BME280;14306;49.942;11.570;2023-05-08T12:21:33;98272.53;;;24.77;34.63
1371;BME280;14306;49.942;11.570;2023-05-08T12:24:10;98230.47;;;23.52;35.96
1371;BME280;14306;49.942;11.570;2023-05-08T12:26:39;98238.84;;;24.23;35.33
1371;BME280;14306;49.942;11.570;2023-05-08T12:29:08;98272.56;;;24.55;34.42
1371;BME280;14306;49.942;11.570;2023-05-08T12:31:38;98262.84;;;24.16;35.45
1371;BME280;14306;49.942;11.570;2023-05-08T12:34:14;98243.13;;;23.72;35.91
1371;BME280;14306;49.942;11.570;2023-05-08T12:36:45;98262.22;;;24.26;34.17
1371;BME280;14306;49.942;11.570;2023-05-08T12:39:16;98225.53;;;23.61;35.28
1371;BME280;14306;49.942;11.570;2023-05-08T12:41:47;98248.09;;;24.08;35.31
1371;BME280;14306;49.942;11.570;2023-05-08T12:44:18;98227.97;;;23.89;34.94
1371;BME280;14306;49.942;11.570;2023-05-08T12:46:52;98247.09;;;24.46;33.84
1371;BME280;14306;49.942;11.570;2023-05-08T12:49:24;98246.25;;;24.42;33.97
1371;BME280;14306;49.942;11.570;2023-05-08T12:52:04;98279.97;;;25.69;32.12
1371;BME280;14306;49.942;11.570;2023-05-08T12:54:34;98253.22;;;24.32;34.81
1371;BME280;14306;49.942;11.570;2023-05-08T12:57:08;98215.16;;;23.36;35.74
1371;BME280;14306;49.942;11.570;2023-05-08T12:59:39;98209.94;;;23.12;36.11
1371;BME280;14306;49.942;11.570;2023-05-08T13:02:12;98220.72;;;23.58;35.19
1371;BME280;14306;49.942;11.570;2023-05-08T13:04:44;98255.03;;;24.47;34.02
1371;BME280;14306;49.942;11.570;2023-05-08T13:07:16;98249.97;;;23.82;35.29
1371;BME280;14306;49.942;11.570;2023-05-08T13:09:59;98246.34;;;23.33;35.61
1371;BME280;14306;49.942;11.570;2023-05-08T13:12:38;98249.84;;;23.94;34.69
1371;BME280;14306;49.942;11.570;2023-05-08T13:15:08;98221.50;;;23.59;35.14
1371;BME280;14306;49.942;11.570;2023-05-08T13:17:39;98183.13;;;22.20;37.05
1371;BME280;14306;49.942;11.570;2023-05-08T13:20:10;98241.31;;;23.19;35.31
1371;BME280;14306;49.942;11.570;2023-05-08T13:22:42;98207.13;;;22.51;36.11
1371;BME280;14306;49.942;11.570;2023-05-08T13:25:13;98181.03;;;22.68;35.31
1371;BME280;14306;49.942;11.570;2023-05-08T13:27:42;98177.00;;;22.46;36.00
1371;BME280;14306;49.942;11.570;2023-05-08T13:30:12;98171.50;;;22.11;36.51
1371;BME280;14306;49.942;11.570;2023-05-08T13:32:52;98199.50;;;22.83;35.29
1371;BME280;14306;49.942;11.570;2023-05-08T13:43:32;98186.41;;;22.26;36.41
1371;BME280;14306;49.942;11.570;2023-05-08T13:46:31;98186.53;;;23.06;34.78
1371;BME280;14306;49.942;11.570;2023-05-08T13:49:02;98195.25;;;23.27;33.89
1371;BME280;14306;49.942;11.570;2023-05-08T13:51:33;98185.31;;;23.45;33.31
1371;BME280;14306;49.942;11.570;2023-05-08T13:54:06;98179.06;;;22.87;33.65
1371;BME280;14306;49.942;11.570;2023-05-08T13:56:40;98202.81;;;23.30;33.71
1371;BME280;14306;49.942;11.570;2023-05-08T13:59:11;98157.53;;;22.04;35.03
1371;BME280;14306;49.942;11.570;2023-05-08T14:01:45;98176.91;;;22.58;34.16
1371;BME280;14306;49.942;11.570;2023-05-08T14:04:16;98159.50;;;22.58;34.39
1371;BME280;14306;49.942;11.570;2023-05-08T14:06:48;98141.44;;;22.25;33.71
1371;BME280;14306;49.942;11.570;2023-05-08T14:09:18;98183.94;;;22.56;34.22
1371;BME280;14306;49.942;11.570;2023-05-08T14:11:54;98143.72;;;22.39;34.42
1371;BME280;14306;49.942;11.570;2023-05-08T14:14:33;98166.75;;;22.46;34.14
1371;BME280;14306;49.942;11.570;2023-05-08T14:17:08;98174.94;;;23.19;32.94